sensor_id;sensor_type;location;lat;lon;timestamp;P1;durP1;ratioP1;P2;durP2;ratioP2
36449;SDS011;22475;51.390;7.180;2023-04-24T00:01:00;0.10;;;0.10;;
36449;SDS011;22475;51.390;7.180;2023-04-24T00:03:28;1.05;;;0.08;;
36449;SDS011;22475;51.390;7.180;2023-04-24T00:05:55;0.32;;;0.20;;
36449;SDS011;22475;51.390;7.180;2023-04-24T00:08:22;0.65;;;0.25;;
36449;SDS011;22475;51.390;7.180;2023-04-24T00:10:48;0.25;;;0.25;;
36449;SDS011;22475;51.390;7.180;2023-04-24T00:13:17;0.60;;;0.20;;
36449;SDS011;22475;51.390;7.180;2023-04-24T00:15:43;0.43;;;0.20;;
36449;SDS011;22475;51.390;7.180;2023-04-24T00:18:10;0.00;;;0.00;;
36449;SDS011;22475;51.390;7.180;2023-04-24T00:20:38;0.43;;;0.22;;
36449;SDS011;22475;51.390;7.180;2023-04-24T00:23:05;0.00;;;0.00;;
36449;SDS011;22475;51.390;7.180;2023-04-24T00:25:32;0.98;;;0.40;;
36449;SDS011;22475;51.390;7.180;2023-04-24T00:27:59;0.10;;;0.10;;
36449;SDS011;22475;51.390;7.180;2023-04-24T00:30:26;0.50;;;0.40;;
36449;SDS011;22475;51.390;7.180;2023-04-24T00:32:52;0.25;;;0.20;;
36449;SDS011;22475;51.390;7.180;2023-04-24T00:35:19;0.20;;;0.10;;
36449;SDS011;22475;51.390;7.180;2023-04-24T00:37:47;0.20;;;0.20;;
36449;SDS011;22475;51.390;7.180;2023-04-24T00:40:14;0.20;;;0.20;;
36449;SDS011;22475;51.390;7.180;2023-04-24T00:42:41;7.30;;;0.32;;
36449;SDS011;22475;51.390;7.180;2023-04-24T00:45:09;1.15;;;0.70;;
36449;SDS011;22475;51.390;7.180;2023-04-24T00:47:36;2.53;;;0.20;;
36449;SDS011;22475;51.390;7.180;2023-04-24T00:50:03;0.73;;;0.32;;
36449;SDS011;22475;51.390;7.180;2023-04-24T00:52:32;0.30;;;0.30;;
36449;SDS011;22475;51.390;7.180;2023-04-24T00:55:00;0.40;;;0.30;;
36449;SDS011;22475;51.390;7.180;2023-04-24T00:57:27;1.85;;;0.22;;
36449;SDS011;22475;51.390;7.180;2023-04-24T00:59:54;0.30;;;0.20;;
36449;SDS011;22475;51.390;7.180;2023-04-24T01:02:21;0.30;;;0.30;;
36449;SDS011;22475;51.390;7.180;2023-04-24T01:04:49;0.77;;;0.30;;
36449;SDS011;22475;51.390;7.180;2023-04-24T01:07:17;1.75;;;0.30;;
36449;SDS011;22475;51.390;7.180;2023-04-24T01:09:46;0.45;;;0.30;;
36449;SDS011;22475;51.390;7.180;2023-04-24T01:12:17;0.68;;;0.68;;
36449;SDS011;22475;51.390;7.180;2023-04-24T01:14:44;2.28;;;0.28;;
36449;SDS011;22475;51.390;7.180;2023-04-24T01:17:11;0.30;;;0.30;;
36449;SDS011;22475;51.390;7.180;2023-04-24T01:19:38;0.35;;;0.28;;
36449;SDS011;22475;51.390;7.180;2023-04-24T01:22:10;0.57;;;0.20;;
36449;SDS011;22475;51.390;7.180;2023-04-24T01:24:37;0.30;;;0.30;;
36449;SDS011;22475;51.390;7.180;2023-04-24T01:27:04;1.17;;;0.40;;
36449;SDS011;22475;51.390;7.180;2023-04-24T01:29:31;0.63;;;0.63;;
36449;SDS011;22475;51.390;7.180;2023-04-24T01:31:58;0.30;;;0.25;;
36449;SDS011;22475;51.390;7.180;2023-04-24T01:34:25;1.95;;;0.40;;
36449;SDS011;22475;51.390;7.180;2023-04-24T01:36:52;1.25;;;0.60;;
36449;SDS011;22475;51.390;7.180;2023-04-24T01:39:20;0.50;;;0.40;;
36449;SDS011;22475;51.390;7.180;2023-04-24T01:41:48;0.77;;;0.40;;
36449;SDS011;22475;51.390;7.180;2023-04-24T01:44:15;0.30;;;0.30;;
36449;SDS011;22475;51.390;7.180;2023-04-24T01:46:43;2.53;;;0.30;;
36449;SDS011;22475;51.390;7.180;2023-04-24T01:49:10;0.90;;;0.55;;
36449;SDS011;22475;51.390;7.180;2023-04-24T01:51:37;0.40;;;0.40;;
36449;SDS011;22475;51.390;7.180;2023-04-24T01:54:03;1.27;;;0.60;;
36449;SDS011;22475;51.390;7.180;2023-04-24T01:56:32;0.77;;;0.60;;
36449;SDS011;22475;51.390;7.180;2023-04-24T01:59:00;0.80;;;0.65;;
36449;SDS011;22475;51.390;7.180;2023-04-24T02:01:32;0.65;;;0.47;;
36449;SDS011;22475;51.390;7.180;2023-04-24T02:04:01;1.00;;;0.30;;
36449;SDS011;22475;51.390;7.180;2023-04-24T02:06:28;1.27;;;0.55;;
36449;SDS011;22475;51.390;7.180;2023-04-24T02:08:56;1.42;;;0.80;;
36449;SDS011;22475;51.390;7.180;2023-04-24T02:11:23;0.88;;;0.65;;
36449;SDS011;22475;51.390;7.180;2023-04-24T02:13:51;4.65;;;0.93;;
36449;SDS011;22475;51.390;7.180;2023-04-24T02:16:18;0.60;;;0.60;;
36449;SDS011;22475;51.390;7.180;2023-04-24T02:18:45;1.52;;;0.80;;
36449;SDS011;22475;51.390;7.180;2023-04-24T02:21:12;0.98;;;0.93;;
36449;SDS011;22475;51.390;7.180;2023-04-24T02:23:38;2.00;;;1.73;;
36449;SDS011;22475;51.390;7.180;2023-04-24T02:26:05;0.98;;;0.98;;
36449;SDS011;22475;51.390;7.180;2023-04-24T02:28:32;2.67;;;1.08;;
36449;SDS011;22475;51.390;7.180;2023-04-24T02:31:00;0.80;;;0.52;;
36449;SDS011;22475;51.390;7.180;2023-04-24T02:33:27;0.65;;;0.60;;
36449;SDS011;22475;51.390;7.180;2023-04-24T02:35:54;8.88;;;2.20;;
36449;SDS011;22475;51.390;7.180;2023-04-24T02:38:20;0.73;;;0.50;;
36449;SDS011;22475;51.390;7.180;2023-04-24T02:40:47;0.90;;;0.90;;
36449;SDS011;22475;51.390;7.180;2023-04-24T02:43:14;0.73;;;0.70;;
36449;SDS011;22475;51.390;7.180;2023-04-24T02:45:41;1.52;;;1.08;;
36449;SDS011;22475;51.390;7.180;2023-04-24T02:48:09;3.30;;;2.13;;
36449;SDS011;22475;51.390;7.180;2023-04-24T02:50:35;1.17;;;1.00;;
36449;SDS011;22475;51.390;7.180;2023-04-24T02:53:02;1.00;;;0.80;;
36449;SDS011;22475;51.390;7.180;2023-04-24T02:55:29;1.85;;;1.42;;
36449;SDS011;22475;51.390;7.180;2023-04-24T02:57:56;2.97;;;0.57;;
36449;SDS011;22475;51.390;7.180;2023-04-24T03:00:23;1.58;;;1.08;;
36449;SDS011;22475;51.390;7.180;2023-04-24T03:02:50;2.83;;;0.70;;
36449;SDS011;22475;51.390;7.180;2023-04-24T03:05:18;5.55;;;1.40;;
36449;SDS011;22475;51.390;7.180;2023-04-24T03:07:45;5.88;;;1.20;;
36449;SDS011;22475;51.390;7.180;2023-04-24T03:10:11;2.90;;;0.90;;
36449;SDS011;22475;51.390;7.180;2023-04-24T03:12:38;1.63;;;1.52;;
36449;SDS011;22475;51.390;7.180;2023-04-24T03:15:05;2.50;;;2.00;;
36449;SDS011;22475;51.390;7.180;2023-04-24T03:17:33;1.80;;;1.65;;
36449;SDS011;22475;51.390;7.180;2023-04-24T03:20:00;1.60;;;0.88;;
36449;SDS011;22475;51.390;7.180;2023-04-24T03:22:28;2.58;;;2.22;;
36449;SDS011;22475;51.390;7.180;2023-04-24T03:24:57;5.78;;;2.05;;
36449;SDS011;22475;51.390;7.180;2023-04-24T03:27:24;1.77;;;1.05;;
36449;SDS011;22475;51.390;7.180;2023-04-24T03:29:50;6.35;;;2.22;;
36449;SDS011;22475;51.390;7.180;2023-04-24T03:32:20;1.05;;;0.95;;
36449;SDS011;22475;51.390;7.180;2023-04-24T03:34:47;2.15;;;1.90;;
36449;SDS011;22475;51.390;7.180;2023-04-24T03:37:14;4.53;;;3.28;;
36449;SDS011;22475;51.390;7.180;2023-04-24T03:39:42;2.55;;;2.35;;
36449;SDS011;22475;51.390;7.180;2023-04-24T03:42:09;2.35;;;1.60;;
36449;SDS011;22475;51.390;7.180;2023-04-24T03:44:36;1.33;;;1.20;;
36449;SDS011;22475;51.390;7.180;2023-04-24T03:47:03;2.90;;;1.90;;
36449;SDS011;22475;51.390;7.180;2023-04-24T03:49:30;1.83;;;1.65;;
36449;SDS011;22475;51.390;7.180;2023-04-24T03:51:56;3.25;;;3.00;;
36449;SDS011;22475;51.390;7.180;2023-04-24T03:54:23;1.85;;;1.45;;
36449;SDS011;22475;51.390;7.180;2023-04-24T03:56:51;1.90;;;1.05;;
36449;SDS011;22475;51.390;7.180;2023-04-24T03:59:18;3.03;;;1.23;;
36449;SDS011;22475;51.390;7.180;2023-04-24T04:01:45;1.50;;;1.40;;
36449;SDS011;22475;51.390;7.180;2023-04-24T04:04:12;5.80;;;3.22;;
36449;SDS011;22475;51.390;7.180;2023-04-24T04:06:38;1.45;;;1.35;;
36449;SDS011;22475;51.390;7.180;2023-04-24T04:09:05;5.25;;;3.05;;
36449;SDS011;22475;51.390;7.180;2023-04-24T04:11:32;3.50;;;1.90;;
36449;SDS011;22475;51.390;7.180;2023-04-24T04:14:01;4.30;;;1.73;;
36449;SDS011;22475;51.390;7.180;2023-04-24T04:16:28;1.80;;;1.42;;
36449;SDS011;22475;51.390;7.180;2023-04-24T04:18:55;2.17;;;1.63;;
36449;SDS011;22475;51.390;7.180;2023-04-24T04:21:22;6.25;;;2.35;;
36449;SDS011;22475;51.390;7.180;2023-04-24T04:23:49;4.75;;;3.33;;
36449;SDS011;22475;51.390;7.180;2023-04-24T04:26:15;5.68;;;2.65;;
36449;SDS011;22475;51.390;7.180;2023-04-24T04:28:44;4.38;;;3.97;;
36449;SDS011;22475;51.390;7.180;2023-04-24T04:31:12;2.95;;;2.22;;
36449;SDS011;22475;51.390;7.180;2023-04-24T04:33:38;6.65;;;3.20;;
36449;SDS011;22475;51.390;7.180;2023-04-24T04:36:05;4.20;;;2.42;;
36449;SDS011;22475;51.390;7.180;2023-04-24T04:38:33;2.83;;;1.52;;
36449;SDS011;22475;51.390;7.180;2023-04-24T04:41:00;5.05;;;2.53;;
36449;SDS011;22475;51.390;7.180;2023-04-24T04:43:27;7.45;;;4.45;;
36449;SDS011;22475;51.390;7.180;2023-04-24T04:45:54;2.65;;;2.28;;
36449;SDS011;22475;51.390;7.180;2023-04-24T04:48:22;4.35;;;2.33;;
36449;SDS011;22475;51.390;7.180;2023-04-24T04:50:49;3.03;;;2.35;;
36449;SDS011;22475;51.390;7.180;2023-04-24T04:53:16;1.88;;;1.77;;
36449;SDS011;22475;51.390;7.180;2023-04-24T04:55:42;5.45;;;2.80;;
36449;SDS011;22475;51.390;7.180;2023-04-24T04:58:09;3.10;;;2.63;;
36449;SDS011;22475;51.390;7.180;2023-04-24T05:00:36;1.88;;;1.67;;
36449;SDS011;22475;51.390;7.180;2023-04-24T05:03:03;3.05;;;2.03;;
36449;SDS011;22475;51.390;7.180;2023-04-24T05:05:31;5.20;;;2.45;;
36449;SDS011;22475;51.390;7.180;2023-04-24T05:07:58;4.20;;;3.47;;
36449;SDS011;22475;51.390;7.180;2023-04-24T05:10:24;3.78;;;2.63;;
36449;SDS011;22475;51.390;7.180;2023-04-24T05:12:51;3.40;;;2.72;;
36449;SDS011;22475;51.390;7.180;2023-04-24T05:15:18;3.67;;;2.65;;
36449;SDS011;22475;51.390;7.180;2023-04-24T05:17:44;2.95;;;2.63;;
36449;SDS011;22475;51.390;7.180;2023-04-24T05:20:11;3.47;;;1.75;;
36449;SDS011;22475;51.390;7.180;2023-04-24T05:22:39;2.42;;;1.90;;
36449;SDS011;22475;51.390;7.180;2023-04-24T05:25:06;4.75;;;2.35;;
36449;SDS011;22475;51.390;7.180;2023-04-24T05:27:33;3.25;;;2.95;;
36449;SDS011;22475;51.390;7.180;2023-04-24T05:30:00;4.65;;;2.42;;
36449;SDS011;22475;51.390;7.180;2023-04-24T05:32:27;6.85;;;3.42;;
36449;SDS011;22475;51.390;7.180;2023-04-24T05:34:54;3.40;;;2.63;;
36449;SDS011;22475;51.390;7.180;2023-04-24T05:37:21;4.72;;;2.50;;
36449;SDS011;22475;51.390;7.180;2023-04-24T05:39:49;9.23;;;3.60;;
36449;SDS011;22475;51.390;7.180;2023-04-24T05:42:16;7.45;;;4.38;;
36449;SDS011;22475;51.390;7.180;2023-04-24T05:44:43;2.80;;;2.20;;
36449;SDS011;22475;51.390;7.180;2023-04-24T05:47:09;6.70;;;3.15;;
36449;SDS011;22475;51.390;7.180;2023-04-24T05:49:36;5.70;;;4.38;;
36449;SDS011;22475;51.390;7.180;2023-04-24T05:52:03;3.72;;;2.47;;
36449;SDS011;22475;51.390;7.180;2023-04-24T05:54:31;3.53;;;3.25;;
36449;SDS011;22475;51.390;7.180;2023-04-24T05:56:59;6.07;;;2.97;;
36449;SDS011;22475;51.390;7.180;2023-04-24T05:59:29;7.22;;;3.67;;
36449;SDS011;22475;51.390;7.180;2023-04-24T06:01:56;3.60;;;3.30;;
36449;SDS011;22475;51.390;7.180;2023-04-24T06:04:22;7.15;;;3.28;;
36449;SDS011;22475;51.390;7.180;2023-04-24T06:06:49;5.60;;;3.17;;
36449;SDS011;22475;51.390;7.180;2023-04-24T06:09:20;6.32;;;2.70;;
36449;SDS011;22475;51.390;7.180;2023-04-24T06:11:47;2.95;;;2.75;;
36449;SDS011;22475;51.390;7.180;2023-04-24T06:14:16;4.50;;;2.63;;
36449;SDS011;22475;51.390;7.180;2023-04-24T06:16:42;6.10;;;2.60;;
36449;SDS011;22475;51.390;7.180;2023-04-24T06:19:11;3.40;;;2.63;;
36449;SDS011;22475;51.390;7.180;2023-04-24T06:21:38;5.32;;;2.42;;
36449;SDS011;22475;51.390;7.180;2023-04-24T06:24:05;2.30;;;2.13;;
36449;SDS011;22475;51.390;7.180;2023-04-24T06:26:32;4.22;;;2.60;;
36449;SDS011;22475;51.390;7.180;2023-04-24T06:28:58;5.55;;;2.25;;
36449;SDS011;22475;51.390;7.180;2023-04-24T06:31:26;5.25;;;2.38;;
36449;SDS011;22475;51.390;7.180;2023-04-24T06:33:53;2.90;;;2.05;;
36449;SDS011;22475;51.390;7.180;2023-04-24T06:36:20;4.03;;;2.05;;
36449;SDS011;22475;51.390;7.180;2023-04-24T06:38:47;8.00;;;2.78;;
36449;SDS011;22475;51.390;7.180;2023-04-24T06:41:13;3.65;;;2.58;;
36449;SDS011;22475;51.390;7.180;2023-04-24T06:43:40;4.13;;;2.50;;
36449;SDS011;22475;51.390;7.180;2023-04-24T06:46:07;4.65;;;3.55;;
36449;SDS011;22475;51.390;7.180;2023-04-24T06:48:35;2.88;;;2.65;;
36449;SDS011;22475;51.390;7.180;2023-04-24T06:51:02;3.38;;;2.30;;
36449;SDS011;22475;51.390;7.180;2023-04-24T06:53:29;2.67;;;2.47;;
36449;SDS011;22475;51.390;7.180;2023-04-24T06:55:55;5.82;;;2.60;;
36449;SDS011;22475;51.390;7.180;2023-04-24T06:58:22;3.80;;;2.08;;
36449;SDS011;22475;51.390;7.180;2023-04-24T07:00:50;2.70;;;2.00;;
36449;SDS011;22475;51.390;7.180;2023-04-24T07:03:16;4.03;;;2.00;;
36449;SDS011;22475;51.390;7.180;2023-04-24T07:05:44;2.33;;;1.27;;
36449;SDS011;22475;51.390;7.180;2023-04-24T07:08:15;4.80;;;2.70;;
36449;SDS011;22475;51.390;7.180;2023-04-24T07:10:43;2.80;;;2.03;;
36449;SDS011;22475;51.390;7.180;2023-04-24T07:13:10;9.13;;;2.35;;
36449;SDS011;22475;51.390;7.180;2023-04-24T07:15:37;1.65;;;1.40;;
36449;SDS011;22475;51.390;7.180;2023-04-24T07:18:04;2.15;;;2.03;;
36449;SDS011;22475;51.390;7.180;2023-04-24T07:20:31;2.25;;;1.83;;
36449;SDS011;22475;51.390;7.180;2023-04-24T07:23:00;10.35;;;2.65;;
36449;SDS011;22475;51.390;7.180;2023-04-24T07:25:27;6.78;;;1.58;;
36449;SDS011;22475;51.390;7.180;2023-04-24T07:27:53;1.85;;;1.55;;
36449;SDS011;22475;51.390;7.180;2023-04-24T07:30:20;2.03;;;1.63;;
36449;SDS011;22475;51.390;7.180;2023-04-24T07:32:47;1.58;;;1.48;;
36449;SDS011;22475;51.390;7.180;2023-04-24T07:35:14;2.90;;;1.55;;
36449;SDS011;22475;51.390;7.180;2023-04-24T07:37:40;4.57;;;3.63;;
36449;SDS011;22475;51.390;7.180;2023-04-24T07:40:12;1.57;;;1.20;;
36449;SDS011;22475;51.390;7.180;2023-04-24T07:42:39;1.20;;;1.20;;
36449;SDS011;22475;51.390;7.180;2023-04-24T07:45:06;0.82;;;0.82;;
36449;SDS011;22475;51.390;7.180;2023-04-24T07:47:33;1.60;;;1.00;;
36449;SDS011;22475;51.390;7.180;2023-04-24T07:50:01;1.10;;;1.00;;
36449;SDS011;22475;51.390;7.180;2023-04-24T07:52:28;1.45;;;0.70;;
36449;SDS011;22475;51.390;7.180;2023-04-24T07:54:55;1.05;;;0.85;;
36449;SDS011;22475;51.390;7.180;2023-04-24T07:57:26;1.17;;;1.00;;
36449;SDS011;22475;51.390;7.180;2023-04-24T07:59:53;1.15;;;0.88;;
36449;SDS011;22475;51.390;7.180;2023-04-24T08:02:20;2.33;;;0.88;;
36449;SDS011;22475;51.390;7.180;2023-04-24T08:04:51;1.38;;;1.25;;
36449;SDS011;22475;51.390;7.180;2023-04-24T08:07:18;0.82;;;0.68;;
36449;SDS011;22475;51.390;7.180;2023-04-24T08:09:44;0.88;;;0.88;;
36449;SDS011;22475;51.390;7.180;2023-04-24T08:12:11;0.52;;;0.52;;
36449;SDS011;22475;51.390;7.180;2023-04-24T08:14:39;1.40;;;0.40;;
36449;SDS011;22475;51.390;7.180;2023-04-24T08:17:06;0.60;;;0.60;;
36449;SDS011;22475;51.390;7.180;2023-04-24T08:19:33;0.30;;;0.30;;
36449;SDS011;22475;51.390;7.180;2023-04-24T08:21:59;1.13;;;0.40;;
36449;SDS011;22475;51.390;7.180;2023-04-24T08:24:26;0.65;;;0.35;;
36449;SDS011;22475;51.390;7.180;2023-04-24T08:26:53;2.38;;;0.60;;
36449;SDS011;22475;51.390;7.180;2023-04-24T08:29:21;0.73;;;0.73;;
36449;SDS011;22475;51.390;7.180;2023-04-24T08:31:49;0.45;;;0.45;;
36449;SDS011;22475;51.390;7.180;2023-04-24T08:34:16;0.40;;;0.40;;
36449;SDS011;22475;51.390;7.180;2023-04-24T08:36:43;0.98;;;0.80;;
36449;SDS011;22475;51.390;7.180;2023-04-24T08:39:10;0.30;;;0.30;;
36449;SDS011;22475;51.390;7.180;2023-04-24T08:41:37;0.47;;;0.47;;
36449;SDS011;22475;51.390;7.180;2023-04-24T08:44:04;1.42;;;0.55;;
36449;SDS011;22475;51.390;7.180;2023-04-24T08:46:31;0.85;;;0.50;;
36449;SDS011;22475;51.390;7.180;2023-04-24T08:49:00;0.45;;;0.45;;
36449;SDS011;22475;51.390;7.180;2023-04-24T08:51:28;0.63;;;0.63;;
36449;SDS011;22475;51.390;7.180;2023-04-24T08:53:57;1.13;;;0.60;;
36449;SDS011;22475;51.390;7.180;2023-04-24T08:56:24;0.60;;;0.57;;
36449;SDS011;22475;51.390;7.180;2023-04-24T08:58:53;2.90;;;0.75;;
36449;SDS011;22475;51.390;7.180;2023-04-24T09:01:20;0.80;;;0.65;;
36449;SDS011;22475;51.390;7.180;2023-04-24T09:03:48;0.40;;;0.32;;
36449;SDS011;22475;51.390;7.180;2023-04-24T09:06:17;0.68;;;0.40;;
36449;SDS011;22475;51.390;7.180;2023-04-24T09:08:45;1.75;;;0.50;;
36449;SDS011;22475;51.390;7.180;2023-04-24T09:11:13;2.15;;;0.75;;
36449;SDS011;22475;51.390;7.180;2023-04-24T09:13:39;0.52;;;0.52;;
36449;SDS011;22475;51.390;7.180;2023-04-24T09:16:07;0.70;;;0.50;;
36449;SDS011;22475;51.390;7.180;2023-04-24T09:18:34;0.60;;;0.47;;
36449;SDS011;22475;51.390;7.180;2023-04-24T09:21:01;0.65;;;0.55;;
36449;SDS011;22475;51.390;7.180;2023-04-24T09:23:31;0.40;;;0.40;;
36449;SDS011;22475;51.390;7.180;2023-04-24T09:25:59;0.40;;;0.40;;
36449;SDS011;22475;51.390;7.180;2023-04-24T09:28:29;0.63;;;0.63;;
36449;SDS011;22475;51.390;7.180;2023-04-24T09:31:07;2.53;;;0.52;;
36449;SDS011;22475;51.390;7.180;2023-04-24T09:33:35;0.45;;;0.45;;
36449;SDS011;22475;51.390;7.180;2023-04-24T09:36:02;0.40;;;0.40;;
36449;SDS011;22475;51.390;7.180;2023-04-24T09:38:34;0.60;;;0.60;;
36449;SDS011;22475;51.390;7.180;2023-04-24T09:41:02;0.45;;;0.38;;
36449;SDS011;22475;51.390;7.180;2023-04-24T09:43:31;0.52;;;0.52;;
36449;SDS011;22475;51.390;7.180;2023-04-24T09:45:58;0.60;;;0.60;;
36449;SDS011;22475;51.390;7.180;2023-04-24T09:48:30;1.25;;;0.88;;
36449;SDS011;22475;51.390;7.180;2023-04-24T09:50:57;0.80;;;0.80;;
36449;SDS011;22475;51.390;7.180;2023-04-24T09:53:24;1.52;;;0.75;;
36449;SDS011;22475;51.390;7.180;2023-04-24T09:55:53;1.30;;;0.95;;
36449;SDS011;22475;51.390;7.180;2023-04-24T09:58:24;1.13;;;0.85;;
36449;SDS011;22475;51.390;7.180;2023-04-24T10:00:53;1.60;;;0.68;;
36449;SDS011;22475;51.390;7.180;2023-04-24T10:03:20;1.75;;;0.68;;
36449;SDS011;22475;51.390;7.180;2023-04-24T10:05:49;0.70;;;0.70;;
36449;SDS011;22475;51.390;7.180;2023-04-24T10:08:18;1.23;;;0.80;;
36449;SDS011;22475;51.390;7.180;2023-04-24T10:10:46;0.57;;;0.52;;
36449;SDS011;22475;51.390;7.180;2023-04-24T10:13:14;0.60;;;0.60;;
36449;SDS011;22475;51.390;7.180;2023-04-24T10:15:41;0.80;;;0.77;;
36449;SDS011;22475;51.390;7.180;2023-04-24T10:18:08;0.45;;;0.45;;
36449;SDS011;22475;51.390;7.180;2023-04-24T10:20:36;0.77;;;0.77;;
36449;SDS011;22475;51.390;7.180;2023-04-24T10:23:04;2.55;;;0.93;;
36449;SDS011;22475;51.390;7.180;2023-04-24T10:25:32;2.10;;;0.70;;
36449;SDS011;22475;51.390;7.180;2023-04-24T10:28:00;0.68;;;0.60;;
36449;SDS011;22475;51.390;7.180;2023-04-24T10:30:29;0.77;;;0.77;;
36449;SDS011;22475;51.390;7.180;2023-04-24T10:33:00;0.88;;;0.88;;
36449;SDS011;22475;51.390;7.180;2023-04-24T10:35:27;1.10;;;0.63;;
36449;SDS011;22475;51.390;7.180;2023-04-24T10:37:57;0.77;;;0.77;;
36449;SDS011;22475;51.390;7.180;2023-04-24T10:40:29;2.38;;;1.10;;
36449;SDS011;22475;51.390;7.180;2023-04-24T10:42:57;2.92;;;1.35;;
36449;SDS011;22475;51.390;7.180;2023-04-24T10:45:24;6.93;;;1.20;;
36449;SDS011;22475;51.390;7.180;2023-04-24T10:47:53;1.77;;;0.98;;
36449;SDS011;22475;51.390;7.180;2023-04-24T10:50:25;3.58;;;0.90;;
36449;SDS011;22475;51.390;7.180;2023-04-24T10:52:53;1.83;;;1.02;;
36449;SDS011;22475;51.390;7.180;2023-04-24T10:55:40;2.45;;;0.90;;
36449;SDS011;22475;51.390;7.180;2023-04-24T10:58:12;2.67;;;1.27;;
36449;SDS011;22475;51.390;7.180;2023-04-24T11:00:40;3.30;;;1.40;;
36449;SDS011;22475;51.390;7.180;2023-04-24T11:03:24;2.13;;;1.15;;
36449;SDS011;22475;51.390;7.180;2023-04-24T11:05:53;4.07;;;1.52;;
36449;SDS011;22475;51.390;7.180;2023-04-24T11:08:26;4.37;;;1.17;;
36449;SDS011;22475;51.390;7.180;2023-04-24T11:10:59;5.05;;;1.20;;
36449;SDS011;22475;51.390;7.180;2023-04-24T11:16:32;4.53;;;1.30;;
36449;SDS011;22475;51.390;7.180;2023-04-24T11:19:01;1.73;;;1.23;;
36449;SDS011;22475;51.390;7.180;2023-04-24T11:21:38;6.38;;;1.98;;
36449;SDS011;22475;51.390;7.180;2023-04-24T11:24:25;2.35;;;1.10;;
36449;SDS011;22475;51.390;7.180;2023-04-24T11:26:57;2.97;;;1.70;;
36449;SDS011;22475;51.390;7.180;2023-04-24T11:29:42;2.63;;;1.40;;
36449;SDS011;22475;51.390;7.180;2023-04-24T11:35:02;2.20;;;1.23;;
36449;SDS011;22475;51.390;7.180;2023-04-24T11:37:33;7.85;;;1.98;;
36449;SDS011;22475;51.390;7.180;2023-04-24T11:40:02;2.20;;;1.10;;
36449;SDS011;22475;51.390;7.180;2023-04-24T11:42:33;2.05;;;1.67;;
36449;SDS011;22475;51.390;7.180;2023-04-24T11:45:00;7.32;;;1.55;;
36449;SDS011;22475;51.390;7.180;2023-04-24T11:47:28;4.93;;;1.60;;
36449;SDS011;22475;51.390;7.180;2023-04-24T11:49:55;5.32;;;2.22;;
36449;SDS011;22475;51.390;7.180;2023-04-24T11:52:24;3.38;;;1.70;;
36449;SDS011;22475;51.390;7.180;2023-04-24T11:54:50;4.90;;;1.90;;
36449;SDS011;22475;51.390;7.180;2023-04-24T11:57:18;6.07;;;1.90;;
36449;SDS011;22475;51.390;7.180;2023-04-24T11:59:46;4.65;;;1.73;;
36449;SDS011;22475;51.390;7.180;2023-04-24T12:02:19;7.60;;;1.63;;
36449;SDS011;22475;51.390;7.180;2023-04-24T12:04:47;1.88;;;1.27;;
36449;SDS011;22475;51.390;7.180;2023-04-24T12:07:14;4.00;;;1.02;;
36449;SDS011;22475;51.390;7.180;2023-04-24T12:09:43;7.30;;;1.70;;
36449;SDS011;22475;51.390;7.180;2023-04-24T12:12:10;3.30;;;1.33;;
36449;SDS011;22475;51.390;7.180;2023-04-24T12:14:47;5.82;;;1.52;;
36449;SDS011;22475;51.390;7.180;2023-04-24T12:17:15;3.72;;;1.23;;
36449;SDS011;22475;51.390;7.180;2023-04-24T12:19:47;13.55;;;2.30;;
36449;SDS011;22475;51.390;7.180;2023-04-24T12:22:15;0.55;;;0.55;;
36449;SDS011;22475;51.390;7.180;2023-04-24T12:24:56;9.25;;;1.70;;
36449;SDS011;22475;51.390;7.180;2023-04-24T12:27:29;3.15;;;1.35;;
36449;SDS011;22475;51.390;7.180;2023-04-24T12:29:57;5.82;;;1.63;;
36449;SDS011;22475;51.390;7.180;2023-04-24T12:32:25;4.97;;;1.60;;
36449;SDS011;22475;51.390;7.180;2023-04-24T12:34:52;7.55;;;1.85;;
36449;SDS011;22475;51.390;7.180;2023-04-24T12:37:19;2.05;;;1.42;;
36449;SDS011;22475;51.390;7.180;2023-04-24T12:40:01;3.92;;;1.83;;
36449;SDS011;22475;51.390;7.180;2023-04-24T12:42:29;1.48;;;1.13;;
36449;SDS011;22475;51.390;7.180;2023-04-24T12:44:57;3.03;;;1.52;;
36449;SDS011;22475;51.390;7.180;2023-04-24T12:47:25;6.90;;;1.35;;
36449;SDS011;22475;51.390;7.180;2023-04-24T12:49:52;2.65;;;1.42;;
36449;SDS011;22475;51.390;7.180;2023-04-24T12:52:20;1.65;;;1.05;;
36449;SDS011;22475;51.390;7.180;2023-04-24T12:54:48;1.42;;;1.25;;
36449;SDS011;22475;51.390;7.180;2023-04-24T12:57:16;2.97;;;1.40;;
36449;SDS011;22475;51.390;7.180;2023-04-24T12:59:43;1.83;;;1.35;;
36449;SDS011;22475;51.390;7.180;2023-04-24T13:02:10;4.97;;;1.60;;
36449;SDS011;22475;51.390;7.180;2023-04-24T13:04:38;2.38;;;1.45;;
36449;SDS011;22475;51.390;7.180;2023-04-24T13:07:05;2.00;;;1.10;;
36449;SDS011;22475;51.390;7.180;2023-04-24T13:09:34;5.15;;;1.40;;
36449;SDS011;22475;51.390;7.180;2023-04-24T13:12:00;1.20;;;0.98;;
36449;SDS011;22475;51.390;7.180;2023-04-24T13:14:29;3.30;;;1.50;;
36449;SDS011;22475;51.390;7.180;2023-04-24T13:16:55;3.13;;;1.02;;
36449;SDS011;22475;51.390;7.180;2023-04-24T13:19:23;6.93;;;1.55;;
36449;SDS011;22475;51.390;7.180;2023-04-24T13:21:51;1.73;;;1.17;;
36449;SDS011;22475;51.390;7.180;2023-04-24T13:24:17;6.65;;;1.23;;
36449;SDS011;22475;51.390;7.180;2023-04-24T13:26:45;1.20;;;1.00;;
36449;SDS011;22475;51.390;7.180;2023-04-24T13:29:11;4.13;;;1.50;;
36449;SDS011;22475;51.390;7.180;2023-04-24T13:31:39;3.67;;;1.10;;
36449;SDS011;22475;51.390;7.180;2023-04-24T13:34:06;3.20;;;1.85;;
36449;SDS011;22475;51.390;7.180;2023-04-24T13:36:33;2.47;;;1.38;;
36449;SDS011;22475;51.390;7.180;2023-04-24T13:39:00;4.10;;;1.33;;
36449;SDS011;22475;51.390;7.180;2023-04-24T13:41:28;3.13;;;0.90;;
36449;SDS011;22475;51.390;7.180;2023-04-24T13:43:55;5.25;;;1.05;;
36449;SDS011;22475;51.390;7.180;2023-04-24T13:46:21;7.07;;;1.77;;
36449;SDS011;22475;51.390;7.180;2023-04-24T13:48:50;2.05;;;0.88;;
36449;SDS011;22475;51.390;7.180;2023-04-24T13:51:17;2.28;;;1.25;;
36449;SDS011;22475;51.390;7.180;2023-04-24T13:53:44;1.55;;;0.63;;
36449;SDS011;22475;51.390;7.180;2023-04-24T13:56:11;1.25;;;0.80;;
36449;SDS011;22475;51.390;7.180;2023-04-24T13:58:39;2.40;;;0.95;;
36449;SDS011;22475;51.390;7.180;2023-04-24T14:01:05;3.47;;;0.73;;
36449;SDS011;22475;51.390;7.180;2023-04-24T14:03:32;1.60;;;0.68;;
36449;SDS011;22475;51.390;7.180;2023-04-24T14:06:00;1.55;;;1.17;;
36449;SDS011;22475;51.390;7.180;2023-04-24T14:08:27;1.42;;;1.27;;
36449;SDS011;22475;51.390;7.180;2023-04-24T14:10:54;2.80;;;1.00;;
36449;SDS011;22475;51.390;7.180;2023-04-24T14:13:21;1.30;;;0.93;;
36449;SDS011;22475;51.390;7.180;2023-04-24T14:15:48;3.00;;;1.08;;
36449;SDS011;22475;51.390;7.180;2023-04-24T14:18:15;3.72;;;0.82;;
36449;SDS011;22475;51.390;7.180;2023-04-24T14:20:42;4.80;;;0.88;;
36449;SDS011;22475;51.390;7.180;2023-04-24T14:23:10;3.90;;;0.70;;
36449;SDS011;22475;51.390;7.180;2023-04-24T14:25:37;0.85;;;0.82;;
36449;SDS011;22475;51.390;7.180;2023-04-24T14:28:05;3.97;;;0.80;;
36449;SDS011;22475;51.390;7.180;2023-04-24T14:30:32;2.70;;;0.80;;
36449;SDS011;22475;51.390;7.180;2023-04-24T14:32:58;1.20;;;1.13;;
36449;SDS011;22475;51.390;7.180;2023-04-24T14:35:25;3.45;;;0.93;;
36449;SDS011;22475;51.390;7.180;2023-04-24T14:37:53;6.13;;;0.88;;
36449;SDS011;22475;51.390;7.180;2023-04-24T14:40:22;1.58;;;0.60;;
36449;SDS011;22475;51.390;7.180;2023-04-24T14:42:48;2.35;;;0.55;;
36449;SDS011;22475;51.390;7.180;2023-04-24T14:45:15;1.15;;;0.68;;
36449;SDS011;22475;51.390;7.180;2023-04-24T14:47:42;2.15;;;0.70;;
36449;SDS011;22475;51.390;7.180;2023-04-24T14:50:09;1.10;;;0.70;;
36449;SDS011;22475;51.390;7.180;2023-04-24T14:52:37;0.95;;;0.68;;
36449;SDS011;22475;51.390;7.180;2023-04-24T14:55:04;1.27;;;0.75;;
36449;SDS011;22475;51.390;7.180;2023-04-24T14:57:33;2.90;;;0.73;;